^^
Grace C. Lehan Memorial Weather Station Historical Data
Daily Summary for June 26, 2021 Units:  Metric    English   Both
Daily Weekly Monthly Yearly
  High: Low: Average:
Temperature: 17.6 °C 16.1 °C 16.4 °C
Dew Point: 15.7 °C 13.3 °C 14.3 °C
Humidity: 90% 82% 87%
Wind Speed: 0.2km/h 0km/h 0km/h
Wind Gust: 6.4km/h - -
Wind- - WSW
Pressure: 1018.5 hPa 1016.1 hPa -
Precipitation: 0 mm    
 
 
Tabular Data for June 26, 2021
Time Temperature Dew Point Pressure Wind Wind Speed Wind Gust Humidity Rainfall Rate (Hourly) solar
00:04 16.4 °C 13.4 °C 1018.5 hPa Calm     82% 0 mm 0 W/m2
00:09 16.4 °C 13.3 °C 1018.5 hPa Calm   1.6 km/h 82% 0 mm 0 W/m2
00:14 16.3 °C 13.4 °C 1018.2 hPa Calm   1.6 km/h 82.7% 0 mm 0 W/m2
00:19 16.3 °C 13.4 °C 1018.2 hPa Calm   1.6 km/h 83% 0 mm 0 W/m2
00:24 16.3 °C 13.4 °C 1018.2 hPa Calm   1.6 km/h 83% 0 mm 0 W/m2
00:29 16.3 °C 13.4 °C 1018.2 hPa Calm   1.6 km/h 83% 0 mm 0 W/m2
00:34 16.3 °C 13.5 °C 1018.2 hPa Calm   1.6 km/h 83.8% 0 mm 0 W/m2
00:39 16.2 °C 13.6 °C 1018.2 hPa WSW 0.2 km/h 6.4 km/h 84% 0 mm 0 W/m2
00:44 16.2 °C 13.5 °C 1018.2 hPa Calm   6.4 km/h 84% 0 mm 0 W/m2
00:49 16.2 °C 13.5 °C 1018.2 hPa Calm   6.4 km/h 84% 0 mm 0 W/m2
00:54 16.2 °C 13.5 °C 1018.2 hPa Calm   6.4 km/h 84% 0 mm 0 W/m2
00:59 16.2 °C 13.5 °C 1018.2 hPa Calm   6.4 km/h 84% 0 mm 0 W/m2
01:04 16.2 °C 13.5 °C 1018.2 hPa Calm   6.4 km/h 84% 0 mm 0 W/m2
01:09 16.2 °C 13.6 °C 1017.8 hPa Calm     84.2% 0 mm 0 W/m2
01:14 16.2 °C 13.7 °C 1017.8 hPa Calm     85% 0 mm 0 W/m2
01:19 16.2 °C 13.7 °C 1017.8 hPa Calm     85% 0 mm 0 W/m2
01:24 16.2 °C 13.7 °C 1017.8 hPa Calm     85% 0 mm 0 W/m2
01:29 16.2 °C 13.6 °C 1017.8 hPa Calm     85% 0 mm 0 W/m2
01:34 16.2 °C 13.6 °C 1017.5 hPa Calm     85% 0 mm 0 W/m2
01:39 16.1 °C 13.7 °C 1017.5 hPa Calm     85.6% 0 mm 0 W/m2
01:44 16.1 °C 13.8 °C 1017.5 hPa Calm     86% 0 mm 0 W/m2
01:49 16.1 °C 13.8 °C 1017.5 hPa Calm     86% 0 mm 0 W/m2
01:54 16.1 °C 13.8 °C 1017.5 hPa Calm     86% 0 mm 0 W/m2
01:59 16.1 °C 13.8 °C 1017.5 hPa Calm     86% 0 mm 0 W/m2
02:04 16.1 °C 13.8 °C 1017.5 hPa Calm     86% 0 mm 0 W/m2
02:09 16.1 °C 13.8 °C 1017.5 hPa Calm     86% 0 mm 0 W/m2
02:14 16.1 °C 13.8 °C 1017.2 hPa Calm     86% 0 mm 0 W/m2
02:19 16.1 °C 13.9 °C 1017.5 hPa Calm     86.6% 0 mm 0 W/m2
02:24 16.2 °C 14 °C 1017.2 hPa Calm     87% 0 mm 0 W/m2
02:29 16.2 °C 14 °C 1017.2 hPa Calm     87% 0 mm 0 W/m2
02:34 16.2 °C 14.1 °C 1017.2 hPa Calm     87% 0 mm 0 W/m2
02:39 16.2 °C 14.1 °C 1017.2 hPa Calm     87% 0 mm 0 W/m2
02:44 16.3 °C 14.1 °C 1017.2 hPa Calm     87% 0 mm 0 W/m2
02:49 16.3 °C 14.1 °C 1017.2 hPa Calm     87% 0 mm 0 W/m2
02:54 16.3 °C 14.1 °C 1017.2 hPa Calm     87% 0 mm 0 W/m2
02:59 16.3 °C 14.2 °C 1017.2 hPa Calm     87% 0 mm 0 W/m2
03:04 16.3 °C 14.2 °C 1017.2 hPa Calm     87% 0 mm 0 W/m2
03:09 16.4 °C 14.2 °C 1016.8 hPa Calm     87% 0 mm 0 W/m2
03:14 16.4 °C 14.3 °C 1016.8 hPa Calm     87% 0 mm 0 W/m2
03:19 16.5 °C 14.3 °C 1016.8 hPa Calm     87% 0 mm 0 W/m2
03:24 16.6 °C 14.4 °C 1016.8 hPa Calm     87% 0 mm 0 W/m2
03:29 16.6 °C 14.4 °C 1016.8 hPa Calm     87% 0 mm 0 W/m2
03:34 16.6 °C 14.4 °C 1016.8 hPa Calm     87% 0 mm 0 W/m2
03:39 16.7 °C 14.5 °C 1016.8 hPa Calm     87% 0 mm 0 W/m2
03:44 16.7 °C 14.5 °C 1016.8 hPa Calm     87% 0 mm 0 W/m2
03:49 16.7 °C 14.5 °C 1016.8 hPa Calm     87% 0 mm 0 W/m2
03:54 16.7 °C 14.5 °C 1016.8 hPa Calm     87% 0 mm 0 W/m2
03:59 16.7 °C 14.5 °C 1016.8 hPa Calm   1.6 km/h 87% 0 mm 0 W/m2
04:00 16.7 °C 14.5 °C 1016.5 hPa Calm   1.6 km/h 87% 0 mm 0 W/m2
04:09 16.7 °C 14.6 °C 1016.5 hPa Calm   1.6 km/h 87.2% 0 mm 0 W/m2
04:14 16.7 °C 14.6 °C 1016.5 hPa Calm   1.6 km/h 87.4% 0 mm 0 W/m2
04:19 16.7 °C 14.7 °C 1016.5 hPa Calm   1.6 km/h 88% 0 mm 0 W/m2
04:24 16.7 °C 14.7 °C 1016.5 hPa Calm   1.6 km/h 88% 0 mm 0 W/m2
04:29 16.7 °C 14.7 °C 1016.5 hPa WSW 0.2 km/h 3.2 km/h 88% 0 mm 0 W/m2
04:34 16.7 °C 14.7 °C 1016.5 hPa Calm   3.2 km/h 88% 0 mm 0 W/m2
04:39 16.7 °C 14.7 °C 1016.5 hPa Calm     88% 0 mm 0 W/m2
04:44 16.7 °C 14.7 °C 1016.5 hPa Calm   1.6 km/h 88% 0 mm 0 W/m2
04:49 16.7 °C 14.7 °C 1016.5 hPa Calm   1.6 km/h 88% 0 mm 0 W/m2
04:54 16.7 °C 14.7 °C 1016.5 hPa Calm   1.6 km/h 88% 0 mm 0 W/m2
04:59 16.7 °C 14.7 °C 1016.5 hPa Calm   1.6 km/h 88% 0 mm 0 W/m2
05:04 16.7 °C 14.7 °C 1016.1 hPa Calm   1.6 km/h 88% 0 mm 0 W/m2
05:09 16.6 °C 14.6 °C 1016.5 hPa Calm   1.6 km/h 88% 0 mm 0 W/m2
05:14 16.6 °C 14.7 °C 1016.5 hPa Calm   1.6 km/h 88.3% 0 mm 0 W/m2
05:19 16.6 °C 14.7 °C 1016.5 hPa Calm   1.6 km/h 89% 0 mm 0 W/m2
05:24 16.6 °C 14.7 °C 1016.5 hPa Calm   1.6 km/h 89% 0 mm 0 W/m2
05:29 16.5 °C 14.7 °C 1016.5 hPa Calm   1.6 km/h 89% 0 mm 7 W/m2
05:34 16.5 °C 14.7 °C 1016.5 hPa Calm   1.6 km/h 89% 0 mm 11 W/m2
05:39 16.5 °C 14.7 °C 1016.5 hPa Calm     89% 0 mm 12 W/m2
05:44 16.5 °C 14.7 °C 1016.5 hPa Calm     89% 0 mm 16 W/m2
05:49 16.5 °C 14.7 °C 1016.1 hPa Calm     89% 0 mm 19 W/m2
05:54 16.4 °C 14.7 °C 1016.1 hPa Calm     89% 0 mm 25 W/m2
05:59 16.5 °C 14.8 °C 1016.1 hPa Calm     89.8% 0 mm 30 W/m2
06:04 16.5 °C 14.8 °C 1016.1 hPa Calm     90% 0 mm 35 W/m2
06:09 16.5 °C 14.9 °C 1016.1 hPa Calm     90% 0 mm 37 W/m2
06:14 16.6 °C 14.9 °C 1016.1 hPa Calm     90% 0 mm 40 W/m2
06:19 16.6 °C 14.9 °C 1016.1 hPa Calm     90% 0 mm 42 W/m2
06:24 16.7 °C 15.1 °C 1016.5 hPa Calm     90% 0 mm 46 W/m2
06:29 16.7 °C 15.1 °C 1016.5 hPa Calm     90% 0 mm 49 W/m2
06:34 16.8 °C 15.2 °C 1016.5 hPa Calm     90% 0 mm 69 W/m2
06:39 16.9 °C 15.3 °C 1016.5 hPa Calm     90% 0 mm 70 W/m2
06:44 17.1 °C 15.4 °C 1016.5 hPa Calm     90% 0 mm 72 W/m2
06:49 17.2 °C 15.6 °C 1016.1 hPa Calm     90% 0 mm 88 W/m2
06:54 17.4 °C 15.7 °C 1016.1 hPa Calm     89.3% 0 mm 98 W/m2
06:58 17.6 °C 15.7 °C 1016.1 hPa Calm     88.8% 0 mm 98 W/m2
Hartford County Weather
Compliments of Weather Underground - 2 mb